Aeroporto :
LOGIN :

Iscrizione | Disclaimer

   EN    FR    IT 

 










Sommario :    VFR   VFR Marginale   IFR   IFR Intensivo   IFR Molto Intensivo
Visibilità : 
Base nubi : 
>= 8 km
>= 3000ft
5 / 8 km
1000 / 3000 ft
1500m / 5 km
500 / 1000 ft
800 / 1500m
200 / 500 ft
< 800m
< 200 ft
Simboli :   Temporali  Nebbia  Neve Forte  Precipitazioni Forti  Vento > 20 kt
SIGMETs :   Varie  Temporali  Ghiacco  Turbolenza  Onda orograficha  Ceneri Vulcaniche






- Altitudine del aeroporto : 479 ft
- Codice IATA : DOL


LFRG - Deauville

ULTIMO METAR :
  • 190630Z AUTO 02005KT CAVOK 03/01 Q1039 TEMPO BKN013

METARs OBSOLETI :
  • 190600Z AUTO 01004KT 9999 FEW027 SCT140 02/01 Q1038 TEMPO BKN013
  • 190530Z AUTO 36004KT CAVOK 02/01 Q1038 TEMPO BKN013
  • 190500Z AUTO VRB03KT 9999 SCT023 SCT130 02/01 Q1037
  • 190430Z AUTO VRB03KT 9999 FEW022 02/01 Q1037
  • 190400Z AUTO 36003KT CAVOK 02/01 Q1037

TAF TAF LFRG
Valido dal 19 a 06 ore il 19 a 15 ore UTC


190500Z 1906/1915 02005KT 9999 SCT020
TEMPO 1906/1908 BKN013
BECMG 1910/1912 02010KT
ATIS : +33 2 31 65 65 36



MetMap, La meteo Aeronautica in un colpo d'occhio ! - Copyright ORBIFLY Dicembre 2007 - Disclaimer

ORBIFLY MET'MAP TEAM :

Programmazione e sviluppo : Alexandra Zaïnal
Concezione : Baudouin d'Aumeries
Aiuto per la programmazione : Marc-Olivier Méhu
Supporto tecnico e logistico : Manuel Goepfert
Aiuto per la traduzione : Arnaldo La Scala

Contatto : metmap@orbifly.com




FONTI E CREDITI :

   NOAA